createdAt,value
2022-08-25T00:00:09.967Z,20.43
2022-08-25T00:02:55.299Z,20.39
2022-08-25T00:05:35.466Z,20.37
2022-08-25T00:08:16.224Z,20.32
2022-08-25T00:11:03.389Z,20.29
2022-08-25T00:13:46.505Z,20.21
2022-08-25T00:16:28.439Z,20.19
2022-08-25T00:19:10.238Z,20.17
2022-08-25T00:21:49.952Z,20.10
2022-08-25T00:24:49.000Z,20.08
2022-08-25T00:27:28.776Z,20.05
2022-08-25T00:30:10.237Z,20.01
2022-08-25T00:32:57.339Z,19.97
2022-08-25T00:35:36.353Z,19.90
2022-08-25T00:38:17.684Z,19.85
2022-08-25T00:41:06.665Z,19.80
2022-08-25T00:43:49.658Z,19.77
2022-08-25T00:46:31.426Z,19.75
2022-08-25T00:49:25.090Z,19.71
2022-08-25T00:52:09.924Z,19.68
2022-08-25T00:54:52.751Z,19.64
2022-08-25T00:57:35.200Z,19.60
2022-08-25T01:00:21.762Z,19.48
2022-08-25T01:03:04.582Z,19.45
2022-08-25T01:05:46.514Z,19.40
2022-08-25T01:08:29.111Z,19.34
2022-08-25T01:11:11.493Z,19.31
2022-08-25T01:13:54.223Z,19.29
2022-08-25T01:16:35.748Z,19.30
2022-08-25T01:19:16.843Z,19.26
2022-08-25T01:21:57.267Z,19.22
2022-08-25T01:24:42.113Z,19.15
2022-08-25T01:27:22.616Z,19.16
2022-08-25T01:30:02.544Z,19.14
2022-08-25T01:32:42.208Z,19.11
2022-08-25T01:35:22.041Z,19.08
2022-08-25T01:38:04.863Z,19.04
2022-08-25T01:40:44.832Z,19.01
2022-08-25T01:43:31.562Z,18.98
2022-08-25T01:46:10.894Z,19.01
2022-08-25T01:48:52.733Z,19.01
2022-08-25T01:51:36.304Z,19.00
2022-08-25T01:54:19.840Z,18.99
2022-08-25T01:57:00.601Z,18.93
2022-08-25T01:59:41.253Z,18.93
2022-08-25T02:02:20.933Z,18.94
2022-08-25T02:05:00.745Z,18.89
2022-08-25T02:07:42.230Z,18.90
2022-08-25T02:10:24.001Z,18.89
2022-08-25T02:13:05.906Z,18.89
2022-08-25T02:15:53.000Z,18.87
2022-08-25T02:18:34.999Z,18.84
2022-08-25T02:21:15.739Z,18.83
2022-08-25T02:23:54.543Z,18.81
2022-08-25T02:26:37.199Z,18.81
2022-08-25T02:29:18.633Z,18.75
2022-08-25T02:32:19.604Z,18.77
2022-08-25T02:34:58.977Z,18.76
2022-08-25T02:37:38.406Z,18.76
2022-08-25T02:40:18.643Z,18.73
2022-08-25T02:42:57.334Z,18.74
2022-08-25T02:45:39.903Z,18.73
2022-08-25T02:48:19.704Z,18.68
2022-08-25T02:51:01.043Z,18.65
2022-08-25T02:53:42.930Z,18.62
2022-08-25T02:56:26.550Z,18.59
2022-08-25T02:59:06.881Z,18.57
2022-08-25T03:01:48.301Z,18.54
2022-08-25T03:04:30.785Z,18.49
2022-08-25T03:07:11.996Z,18.47
2022-08-25T03:10:18.332Z,18.42
2022-08-25T03:12:56.298Z,18.39
2022-08-25T03:15:37.672Z,18.37
2022-08-25T03:18:17.125Z,18.35
2022-08-25T03:20:59.384Z,18.31
2022-08-25T03:23:43.217Z,18.27
2022-08-25T03:26:40.650Z,18.26
2022-08-25T03:29:21.155Z,18.22
2022-08-25T03:32:05.181Z,18.16
2022-08-25T03:35:08.399Z,18.14
2022-08-25T03:37:48.637Z,18.12
2022-08-25T03:40:28.884Z,18.08
2022-08-25T03:43:08.985Z,18.07
2022-08-25T03:45:49.761Z,18.05
2022-08-25T03:48:31.996Z,18.02
2022-08-25T03:51:20.347Z,17.98
2022-08-25T03:54:03.539Z,17.94
2022-08-25T03:56:45.517Z,17.95
2022-08-25T03:59:27.091Z,17.93
2022-08-25T04:02:08.435Z,17.91
2022-08-25T04:04:50.211Z,17.87
2022-08-25T04:07:29.416Z,17.85
2022-08-25T04:10:08.433Z,17.80
2022-08-25T04:12:49.258Z,17.68
2022-08-25T04:15:30.268Z,17.71
2022-08-25T04:18:08.551Z,17.68
2022-08-25T04:20:52.421Z,17.68
2022-08-25T04:23:34.580Z,17.67
2022-08-25T04:26:16.665Z,17.65
2022-08-25T04:28:58.080Z,17.59
2022-08-25T04:31:40.886Z,17.60
2022-08-25T04:34:29.379Z,17.58
2022-08-25T04:37:10.961Z,17.60
2022-08-25T04:39:50.650Z,17.57
2022-08-25T04:42:31.199Z,17.57
2022-08-25T04:45:12.116Z,17.57
2022-08-25T04:47:54.860Z,17.56
2022-08-25T04:50:34.673Z,17.57
2022-08-25T04:53:14.473Z,17.58
2022-08-25T04:55:54.262Z,17.55
2022-08-25T04:58:34.306Z,17.55
2022-08-25T05:01:17.098Z,17.53
2022-08-25T05:04:00.349Z,17.51
2022-08-25T05:06:42.220Z,17.47
2022-08-25T05:09:25.201Z,17.47
2022-08-25T05:12:06.454Z,17.52
2022-08-25T05:14:44.577Z,17.51
2022-08-25T05:17:25.911Z,17.53
2022-08-25T05:20:06.301Z,17.55
2022-08-25T05:22:47.983Z,17.53
2022-08-25T05:25:28.209Z,17.60
2022-08-25T05:28:07.998Z,17.62
2022-08-25T05:30:50.186Z,17.65
2022-08-25T05:33:31.601Z,17.71
2022-08-25T05:36:13.608Z,17.76
2022-08-25T05:38:53.896Z,17.81
2022-08-25T05:41:33.891Z,17.85
2022-08-25T05:44:15.114Z,17.91
2022-08-25T05:46:59.788Z,17.94
2022-08-25T05:49:53.712Z,18.01
2022-08-25T05:52:34.057Z,18.05
2022-08-25T05:55:15.435Z,18.13
2022-08-25T05:57:55.461Z,18.20
2022-08-25T06:00:35.014Z,18.30
2022-08-25T06:03:14.985Z,18.37
2022-08-25T06:05:54.629Z,18.47
2022-08-25T06:08:34.736Z,18.57
2022-08-25T06:11:16.386Z,18.69
2022-08-25T06:13:54.420Z,18.78
2022-08-25T06:16:33.983Z,18.90
2022-08-25T06:19:16.782Z,19.05
2022-08-25T06:22:00.554Z,19.15
2022-08-25T06:24:42.168Z,19.35
2022-08-25T06:27:22.696Z,19.48
2022-08-25T06:30:08.055Z,19.64
2022-08-25T06:32:49.159Z,19.72
2022-08-25T06:35:28.636Z,19.84
2022-08-25T06:38:08.319Z,19.94
2022-08-25T06:40:52.041Z,20.06
2022-08-25T06:43:35.499Z,20.15
2022-08-25T06:46:17.857Z,20.27
2022-08-25T06:48:57.588Z,20.40
2022-08-25T06:51:36.983Z,20.55
2022-08-25T06:54:16.981Z,20.67
2022-08-25T06:56:56.921Z,20.82
2022-08-25T06:59:38.228Z,20.90
2022-08-25T07:02:35.613Z,21.05
2022-08-25T07:05:26.870Z,21.13
2022-08-25T07:08:13.894Z,21.25
2022-08-25T07:10:55.171Z,21.34
2022-08-25T07:13:35.287Z,21.47
2022-08-25T07:16:16.649Z,21.60
2022-08-25T07:19:11.431Z,21.71
2022-08-25T07:21:55.212Z,21.88
2022-08-25T07:24:37.020Z,21.97
2022-08-25T07:27:18.457Z,22.12
2022-08-25T07:29:59.465Z,22.15
2022-08-25T07:32:41.910Z,22.29
2022-08-25T07:35:26.370Z,22.45
2022-08-25T07:38:10.107Z,22.63
2022-08-25T07:40:54.745Z,22.80
2022-08-25T07:43:41.679Z,22.99
2022-08-25T07:46:24.337Z,23.22
2022-08-25T07:49:04.876Z,23.33
2022-08-25T07:52:05.718Z,23.65
2022-08-25T07:54:45.767Z,23.89
2022-08-25T07:57:28.266Z,24.09
2022-08-25T08:00:10.564Z,24.35
2022-08-25T08:02:53.188Z,24.48
2022-08-25T08:05:33.883Z,24.82
2022-08-25T08:08:16.407Z,25.16
2022-08-25T08:11:04.616Z,25.26
2022-08-25T08:13:48.009Z,25.55
2022-08-25T08:16:32.872Z,26.03
2022-08-25T08:19:13.121Z,26.15
2022-08-25T08:22:05.803Z,26.48
2022-08-25T08:24:54.554Z,26.78
2022-08-25T08:27:36.974Z,26.92
2022-08-25T08:30:16.820Z,27.19
2022-08-25T08:33:40.717Z,27.33
2022-08-25T08:36:22.506Z,27.38
2022-08-25T08:39:06.297Z,27.34
2022-08-25T08:42:16.911Z,27.70
2022-08-25T08:45:09.558Z,27.99
2022-08-25T08:47:57.991Z,28.49
2022-08-25T08:50:41.133Z,28.44
2022-08-25T08:53:26.753Z,28.88
2022-08-25T08:56:17.775Z,29.40
2022-08-25T08:59:21.418Z,29.24
2022-08-25T09:02:06.039Z,29.27
2022-08-25T09:04:55.723Z,29.08
2022-08-25T09:07:42.273Z,29.57
2022-08-25T09:10:24.298Z,29.91
2022-08-25T09:13:13.225Z,30.01
2022-08-25T09:16:20.592Z,30.54
2022-08-25T09:19:28.733Z,30.37
2022-08-25T09:22:34.995Z,30.51
2022-08-25T09:25:39.680Z,30.40
2022-08-25T09:28:25.300Z,29.52
2022-08-25T09:31:17.689Z,29.50
2022-08-25T09:33:57.994Z,29.41
2022-08-25T09:36:38.462Z,29.40
2022-08-25T09:39:21.114Z,30.15
2022-08-25T09:42:01.238Z,30.20
2022-08-25T09:44:43.508Z,29.99
2022-08-25T09:47:28.080Z,29.79
2022-08-25T09:50:16.319Z,29.83
2022-08-25T09:53:18.752Z,30.15
2022-08-25T09:56:06.703Z,30.18
2022-08-25T09:58:46.529Z,30.43
2022-08-25T10:01:28.612Z,30.42
2022-08-25T10:04:20.246Z,29.90
2022-08-25T10:07:04.188Z,30.19
2022-08-25T10:09:54.112Z,29.51
2022-08-25T10:12:37.211Z,30.07
2022-08-25T10:15:36.850Z,29.75
2022-08-25T10:18:25.700Z,29.74
2022-08-25T10:21:12.082Z,29.77
2022-08-25T10:23:55.776Z,29.92
2022-08-25T10:26:43.839Z,29.60
2022-08-25T10:29:34.538Z,29.22
2022-08-25T10:32:18.106Z,29.18
2022-08-25T10:35:00.085Z,29.39
2022-08-25T10:37:47.017Z,28.89
2022-08-25T10:40:35.961Z,29.26
2022-08-25T10:43:23.755Z,29.33
2022-08-25T10:46:12.006Z,29.40
2022-08-25T10:49:09.299Z,29.60
2022-08-25T10:51:56.008Z,29.21
2022-08-25T10:54:42.193Z,29.29
2022-08-25T10:57:36.968Z,29.72
2022-08-25T11:00:22.660Z,30.08
2022-08-25T11:03:18.372Z,30.03
2022-08-25T11:06:15.238Z,30.24
2022-08-25T11:08:59.039Z,29.85
2022-08-25T11:11:56.352Z,29.97
2022-08-25T11:14:40.032Z,29.74
2022-08-25T11:17:47.354Z,30.13
2022-08-25T11:20:39.123Z,29.98
2022-08-25T11:23:23.881Z,30.38
2022-08-25T11:26:11.053Z,30.43
2022-08-25T11:28:55.619Z,30.54
2022-08-25T11:31:41.675Z,30.05
2022-08-25T11:34:22.856Z,30.51
2022-08-25T11:37:11.053Z,30.88
2022-08-25T11:40:08.745Z,30.50
2022-08-25T11:43:01.548Z,30.24
2022-08-25T11:45:54.070Z,30.62
2022-08-25T11:48:41.843Z,30.07
2022-08-25T11:51:33.852Z,30.25
2022-08-25T11:54:24.793Z,30.54
2022-08-25T11:57:27.758Z,30.59
2022-08-25T12:00:14.908Z,30.60
2022-08-25T12:02:58.399Z,30.52
2022-08-25T12:06:18.688Z,31.22
2022-08-25T12:09:22.825Z,30.87
2022-08-25T12:12:28.789Z,31.40
2022-08-25T12:15:21.748Z,31.74
2022-08-25T12:18:14.064Z,32.42
2022-08-25T12:21:18.063Z,31.42
2022-08-25T12:24:15.067Z,32.08
2022-08-25T12:26:59.336Z,32.09
2022-08-25T12:29:43.215Z,32.36
2022-08-25T12:32:40.593Z,32.64
2022-08-25T12:35:32.737Z,32.56
2022-08-25T12:38:16.770Z,32.51
2022-08-25T12:41:01.484Z,32.86
2022-08-25T12:43:43.655Z,32.10
2022-08-25T12:46:39.303Z,31.82
2022-08-25T12:49:35.789Z,32.22
2022-08-25T12:52:19.116Z,32.85
2022-08-25T12:55:05.370Z,32.50
2022-08-25T12:57:47.291Z,32.47
2022-08-25T13:00:29.915Z,32.58
2022-08-25T13:03:26.366Z,32.50
2022-08-25T13:06:22.247Z,32.56
2022-08-25T13:09:47.852Z,32.58
2022-08-25T13:12:35.132Z,32.83
2022-08-25T13:15:29.222Z,32.78
2022-08-25T13:18:17.152Z,32.53
2022-08-25T13:21:05.457Z,32.57
2022-08-25T13:23:47.541Z,33.02
2022-08-25T13:26:35.015Z,32.97
2022-08-25T13:29:17.857Z,33.21
2022-08-25T13:32:12.717Z,32.76
2022-08-25T13:35:09.774Z,32.13
2022-08-25T13:37:50.129Z,32.42
2022-08-25T13:40:33.667Z,32.75
2022-08-25T13:43:15.452Z,32.62
2022-08-25T13:45:54.282Z,32.73
2022-08-25T13:48:39.132Z,32.52
2022-08-25T13:51:24.374Z,32.25
2022-08-25T13:54:26.337Z,32.42
2022-08-25T13:57:08.416Z,32.15
2022-08-25T13:59:51.194Z,31.95
2022-08-25T14:02:44.086Z,31.91
2022-08-25T14:05:35.934Z,31.71
2022-08-25T14:08:32.859Z,31.60
2022-08-25T14:11:15.475Z,31.53
2022-08-25T14:14:01.866Z,31.58
2022-08-25T14:16:51.122Z,31.39
2022-08-25T14:19:35.309Z,31.53
2022-08-25T14:22:14.644Z,31.46
2022-08-25T14:24:55.596Z,30.95
2022-08-25T14:28:13.879Z,31.15
2022-08-25T14:31:09.212Z,30.94
2022-08-25T14:33:53.053Z,31.18
2022-08-25T14:36:36.633Z,31.16
2022-08-25T14:39:18.493Z,31.20
2022-08-25T14:42:01.143Z,31.23
2022-08-25T14:44:40.760Z,31.18
2022-08-25T14:47:20.559Z,30.74
2022-08-25T14:50:02.384Z,30.63
2022-08-25T14:52:42.804Z,30.69
2022-08-25T14:55:31.206Z,30.90
2022-08-25T14:58:12.479Z,30.71
2022-08-25T15:00:54.769Z,30.90
2022-08-25T15:03:39.193Z,30.73
2022-08-25T15:06:18.865Z,30.73
2022-08-25T15:09:11.957Z,30.72
2022-08-25T15:11:56.992Z,30.39
2022-08-25T15:14:40.421Z,30.55
2022-08-25T15:17:20.323Z,30.45
2022-08-25T15:20:00.476Z,30.13
2022-08-25T15:22:45.299Z,30.15
2022-08-25T15:25:25.730Z,30.25
2022-08-25T15:28:10.190Z,30.12
2022-08-25T15:31:04.638Z,30.15
2022-08-25T15:33:50.207Z,30.21
2022-08-25T15:36:31.195Z,30.06
2022-08-25T15:39:23.406Z,30.04
2022-08-25T15:42:06.744Z,30.03
2022-08-25T15:44:52.849Z,30.08
2022-08-25T15:47:33.421Z,29.88
2022-08-25T15:50:20.264Z,29.87
2022-08-25T15:53:01.536Z,29.94
2022-08-25T15:55:41.604Z,29.83
2022-08-25T15:58:22.246Z,29.76
2022-08-25T16:01:04.539Z,29.61
2022-08-25T16:03:45.779Z,29.69
2022-08-25T16:06:27.410Z,29.69
2022-08-25T16:09:10.038Z,29.72
2022-08-25T16:11:56.108Z,29.41
2022-08-25T16:14:37.770Z,29.54
2022-08-25T16:17:18.984Z,29.52
2022-08-25T16:19:57.037Z,29.60
2022-08-25T16:22:36.991Z,29.62
2022-08-25T16:25:16.762Z,29.65
2022-08-25T16:28:14.662Z,29.64
2022-08-25T16:30:56.060Z,29.45
2022-08-25T16:33:37.623Z,29.38
2022-08-25T16:36:17.971Z,29.37
2022-08-25T16:39:00.867Z,29.41
2022-08-25T16:41:42.092Z,29.38
2022-08-25T16:44:22.950Z,29.29
2022-08-25T16:47:04.675Z,29.31
2022-08-25T16:49:48.847Z,29.31
2022-08-25T16:52:47.435Z,29.17
2022-08-25T16:55:39.460Z,29.07
2022-08-25T16:58:20.978Z,28.80
2022-08-25T17:01:07.019Z,28.89
2022-08-25T17:03:48.380Z,28.92
2022-08-25T17:06:30.583Z,28.86
2022-08-25T17:09:12.596Z,28.78
2022-08-25T17:11:52.240Z,28.69
2022-08-25T17:14:33.453Z,28.65
2022-08-25T17:17:11.992Z,28.52
2022-08-25T17:19:53.560Z,28.48
2022-08-25T17:22:34.441Z,28.44
2022-08-25T17:25:14.611Z,28.44
2022-08-25T17:27:55.591Z,28.30
2022-08-25T17:30:34.372Z,28.19
2022-08-25T17:33:15.228Z,28.12
2022-08-25T17:35:56.862Z,28.07
2022-08-25T17:38:37.574Z,27.93
2022-08-25T17:41:20.705Z,27.91
2022-08-25T17:44:01.128Z,27.88
2022-08-25T17:46:44.774Z,27.90
2022-08-25T17:49:25.682Z,27.85
2022-08-25T17:52:05.613Z,27.87
2022-08-25T17:54:44.941Z,27.84
2022-08-25T17:57:28.760Z,27.76
2022-08-25T18:00:13.430Z,27.66
2022-08-25T18:02:53.988Z,27.63
2022-08-25T18:05:34.107Z,27.63
2022-08-25T18:08:14.523Z,27.57
2022-08-25T18:10:53.754Z,27.47
2022-08-25T18:13:35.490Z,27.45
2022-08-25T18:16:18.209Z,27.32
2022-08-25T18:18:57.606Z,27.33
2022-08-25T18:21:37.692Z,27.29
2022-08-25T18:24:16.564Z,27.12
2022-08-25T18:26:57.111Z,27.12
2022-08-25T18:29:41.297Z,27.05
2022-08-25T18:32:22.482Z,27.07
2022-08-25T18:35:16.775Z,27.03
2022-08-25T18:38:19.745Z,27.00
2022-08-25T18:41:01.725Z,26.79
2022-08-25T18:43:40.890Z,26.79
2022-08-25T18:46:22.563Z,26.75
2022-08-25T18:49:15.709Z,26.70
2022-08-25T18:51:55.337Z,26.67
2022-08-25T18:54:35.946Z,26.66
2022-08-25T18:57:16.588Z,26.61
2022-08-25T18:59:56.379Z,26.50
2022-08-25T19:02:36.747Z,26.47
2022-08-25T19:05:20.365Z,26.32
2022-08-25T19:08:01.318Z,26.34
2022-08-25T19:10:47.386Z,26.23
2022-08-25T19:13:29.744Z,26.20
2022-08-25T19:16:13.799Z,26.09
2022-08-25T19:18:59.413Z,25.95
2022-08-25T19:21:44.283Z,25.83
2022-08-25T19:24:29.704Z,25.86
2022-08-25T19:27:12.911Z,25.80
2022-08-25T19:29:54.657Z,25.71
2022-08-25T19:32:34.047Z,25.71
2022-08-25T19:35:19.628Z,25.60
2022-08-25T19:37:59.943Z,25.64
2022-08-25T19:40:38.884Z,25.51
2022-08-25T19:43:18.512Z,25.55
2022-08-25T19:45:58.290Z,25.59
2022-08-25T19:48:36.636Z,25.54
2022-08-25T19:51:19.421Z,25.46
2022-08-25T19:54:02.922Z,25.41
2022-08-25T19:56:54.898Z,25.34
2022-08-25T19:59:43.179Z,25.34
2022-08-25T20:02:29.588Z,25.26
2022-08-25T20:05:13.251Z,25.27
2022-08-25T20:07:56.820Z,25.21
2022-08-25T20:10:41.851Z,25.21
2022-08-25T20:13:21.158Z,25.19
2022-08-25T20:16:03.051Z,25.02
2022-08-25T20:18:47.557Z,25.03
2022-08-25T20:21:28.273Z,25.00
2022-08-25T20:24:27.472Z,25.03
2022-08-25T20:27:09.029Z,24.95
2022-08-25T20:29:47.783Z,24.96
2022-08-25T20:32:28.937Z,24.91
2022-08-25T20:35:13.060Z,24.78
2022-08-25T20:37:53.104Z,24.67
2022-08-25T20:40:33.461Z,24.70
2022-08-25T20:43:14.627Z,24.58
2022-08-25T20:46:01.365Z,24.61
2022-08-25T20:48:41.433Z,24.56
2022-08-25T20:51:23.542Z,24.57
2022-08-25T20:54:01.463Z,24.48
2022-08-25T20:56:40.886Z,24.55
2022-08-25T20:59:21.714Z,24.49
2022-08-25T21:02:00.912Z,24.49
2022-08-25T21:04:50.272Z,24.38
2022-08-25T21:07:29.789Z,24.29
2022-08-25T21:10:14.443Z,24.31
2022-08-25T21:12:54.152Z,24.27
2022-08-25T21:15:33.998Z,24.20
2022-08-25T21:18:12.522Z,24.22
2022-08-25T21:20:52.056Z,24.20
2022-08-25T21:23:31.794Z,24.23
2022-08-25T21:26:15.349Z,24.21
2022-08-25T21:29:15.511Z,24.20
2022-08-25T21:31:54.224Z,24.17
2022-08-25T21:34:35.007Z,24.17
2022-08-25T21:37:16.944Z,24.18
2022-08-25T21:39:56.318Z,24.14
2022-08-25T21:42:36.058Z,24.14
2022-08-25T21:45:14.655Z,24.09
2022-08-25T21:47:54.835Z,24.08
2022-08-25T21:50:35.582Z,24.06
2022-08-25T21:53:15.359Z,24.01
2022-08-25T21:55:57.099Z,23.91
2022-08-25T21:58:36.248Z,23.86
2022-08-25T22:01:16.692Z,23.91
2022-08-25T22:04:02.164Z,23.94
2022-08-25T22:06:43.277Z,23.94
2022-08-25T22:09:24.164Z,23.92
2022-08-25T22:12:04.400Z,23.87
2022-08-25T22:14:45.302Z,23.85
2022-08-25T22:17:24.777Z,23.84
2022-08-25T22:20:06.639Z,23.83
2022-08-25T22:22:49.543Z,23.78
2022-08-25T22:25:29.055Z,23.76
2022-08-25T22:28:15.013Z,23.71
2022-08-25T22:30:54.352Z,23.69
2022-08-25T22:33:36.172Z,23.64
2022-08-25T22:36:21.657Z,23.59
2022-08-25T22:39:01.105Z,23.55
2022-08-25T22:41:42.749Z,23.48
2022-08-25T22:44:25.021Z,23.44
2022-08-25T22:47:05.567Z,23.38
2022-08-25T22:49:46.978Z,23.33
2022-08-25T22:52:33.300Z,23.29
2022-08-25T22:55:12.968Z,23.23
2022-08-25T22:57:54.804Z,23.18
2022-08-25T23:00:35.279Z,23.13
2022-08-25T23:03:17.350Z,23.07
2022-08-25T23:05:58.109Z,23.06
2022-08-25T23:08:40.730Z,22.99
2022-08-25T23:11:19.915Z,22.96
2022-08-25T23:14:02.141Z,22.90
2022-08-25T23:16:44.509Z,22.84
2022-08-25T23:19:23.926Z,22.79
2022-08-25T23:22:13.727Z,22.76
2022-08-25T23:24:56.780Z,22.71
2022-08-25T23:27:37.494Z,22.68
2022-08-25T23:30:19.490Z,22.64
2022-08-25T23:33:01.275Z,22.60
2022-08-25T23:35:41.599Z,22.58
2022-08-25T23:38:23.405Z,22.58
2022-08-25T23:41:06.878Z,22.55
2022-08-25T23:43:47.843Z,22.54
2022-08-25T23:46:29.907Z,22.51
2022-08-25T23:49:10.695Z,22.54
2022-08-25T23:51:52.787Z,22.50
2022-08-25T23:54:33.051Z,22.48
2022-08-25T23:57:12.866Z,22.47
2022-08-25T23:59:51.687Z,22.47
